Ingelmunster, Belgium
Current Conditions -  °F | °C
As of 7:00 AM on Saturday 20 Dec 2014 (Local Time) from LFQQ Reporting Station
Broken Clouds Broken Clouds  
Wind Chill: 37°   Ceiling: 4900
Heat Index: 41°   Visibility: 6mi
Dew Point: 37°   Wind: 6mph
Humidity: 87%   Direction: 210°SSW
Pressure: 30.24"   Gusts: NA
Location:  50.92°N, 3.26°E
Report Text: LFQQ 200600Z 21005KT 9999 BKN049 05/03 Q1024 NOSIG
Loading
Personal Weather Stations






























Interactive Weather Map New forecast layout! Learn more

10-Day Weather Forecast

Advertisements
Track Severe Weather on mobile